sensor_id;sensor_type;location;lat;lon;timestamp;pressure;altitude;pressure_sealevel;temperature;humidity
50774;BME280;36745;48.544;8.918;2024-01-27T00:00:45;99031.38;;;1.32;100.00
50774;BME280;36745;48.544;8.918;2024-01-27T00:04:04;99034.56;;;1.34;100.00
50774;BME280;36745;48.544;8.918;2024-01-27T00:07:24;99032.75;;;1.25;100.00
50774;BME280;36745;48.544;8.918;2024-01-27T00:10:44;99054.34;;;1.22;100.00
50774;BME280;36745;48.544;8.918;2024-01-27T00:14:05;99051.97;;;1.20;100.00
50774;BME280;36745;48.544;8.918;2024-01-27T00:17:25;99046.84;;;1.07;100.00
50774;BME280;36745;48.544;8.918;2024-01-27T00:20:47;99059.31;;;1.08;100.00
50774;BME280;36745;48.544;8.918;2024-01-27T00:24:07;99048.72;;;0.94;100.00
50774;BME280;36745;48.544;8.918;2024-01-27T00:27:26;99051.78;;;0.93;100.00
50774;BME280;36745;48.544;8.918;2024-01-27T00:30:46;99054.84;;;0.91;100.00
50774;BME280;36745;48.544;8.918;2024-01-27T00:34:06;99065.03;;;0.94;100.00
50774;BME280;36745;48.544;8.918;2024-01-27T00:37:26;99057.50;;;0.79;100.00
50774;BME280;36745;48.544;8.918;2024-01-27T00:40:46;99064.66;;;0.83;100.00
50774;BME280;36745;48.544;8.918;2024-01-27T00:44:06;99069.00;;;0.76;100.00
50774;BME280;36745;48.544;8.918;2024-01-27T00:47:25;99062.66;;;0.72;100.00
50774;BME280;36745;48.544;8.918;2024-01-27T00:50:45;99074.72;;;0.62;100.00
50774;BME280;36745;48.544;8.918;2024-01-27T00:54:05;99075.53;;;0.63;100.00
50774;BME280;36745;48.544;8.918;2024-01-27T00:57:25;99080.47;;;0.61;100.00
50774;BME280;36745;48.544;8.918;2024-01-27T01:00:45;99077.13;;;0.43;100.00
50774;BME280;36745;48.544;8.918;2024-01-27T01:04:04;99076.84;;;0.36;100.00
50774;BME280;36745;48.544;8.918;2024-01-27T01:07:24;99089.22;;;0.25;100.00
50774;BME280;36745;48.544;8.918;2024-01-27T01:10:44;99094.16;;;0.23;100.00
50774;BME280;36745;48.544;8.918;2024-01-27T01:14:04;99093.44;;;0.34;100.00
50774;BME280;36745;48.544;8.918;2024-01-27T01:17:24;99092.84;;;0.29;100.00
50774;BME280;36745;48.544;8.918;2024-01-27T01:20:43;99097.03;;;0.26;100.00
50774;BME280;36745;48.544;8.918;2024-01-27T01:24:03;99095.34;;;0.13;100.00
50774;BME280;36745;48.544;8.918;2024-01-27T01:27:23;99103.41;;;0.22;100.00
50774;BME280;36745;48.544;8.918;2024-01-27T01:30:43;99107.69;;;0.31;100.00
50774;BME280;36745;48.544;8.918;2024-01-27T01:34:03;99107.94;;;0.38;100.00
50774;BME280;36745;48.544;8.918;2024-01-27T01:37:23;99100.66;;;0.30;100.00
50774;BME280;36745;48.544;8.918;2024-01-27T01:40:42;99096.56;;;0.24;100.00
50774;BME280;36745;48.544;8.918;2024-01-27T01:44:02;99096.16;;;0.34;100.00
50774;BME280;36745;48.544;8.918;2024-01-27T01:47:22;99093.56;;;0.38;100.00
50774;BME280;36745;48.544;8.918;2024-01-27T01:50:42;99101.31;;;0.27;100.00
50774;BME280;36745;48.544;8.918;2024-01-27T01:54:02;99107.38;;;0.04;100.00
50774;BME280;36745;48.544;8.918;2024-01-27T01:57:22;99108.41;;;0.11;100.00
50774;BME280;36745;48.544;8.918;2024-01-27T02:00:42;99105.16;;;-0.03;100.00
50774;BME280;36745;48.544;8.918;2024-01-27T02:04:04;99110.78;;;-0.08;100.00
50774;BME280;36745;48.544;8.918;2024-01-27T02:07:23;99121.63;;;-0.08;100.00
50774;BME280;36745;48.544;8.918;2024-01-27T02:10:43;99113.16;;;-0.07;100.00
50774;BME280;36745;48.544;8.918;2024-01-27T02:14:03;99122.16;;;-0.23;100.00
50774;BME280;36745;48.544;8.918;2024-01-27T02:17:23;99128.25;;;-0.35;100.00
50774;BME280;36745;48.544;8.918;2024-01-27T02:20:43;99117.72;;;-0.28;100.00
50774;BME280;36745;48.544;8.918;2024-01-27T02:24:07;99132.16;;;-0.15;100.00
50774;BME280;36745;48.544;8.918;2024-01-27T02:27:26;99131.88;;;-0.22;100.00
50774;BME280;36745;48.544;8.918;2024-01-27T02:30:46;99137.38;;;-0.39;100.00
50774;BME280;36745;48.544;8.918;2024-01-27T02:34:06;99134.00;;;-0.36;100.00
50774;BME280;36745;48.544;8.918;2024-01-27T02:37:26;99149.44;;;-0.28;100.00
50774;BME280;36745;48.544;8.918;2024-01-27T02:40:46;99147.72;;;-0.33;100.00
50774;BME280;36745;48.544;8.918;2024-01-27T02:44:05;99151.22;;;-0.32;100.00
50774;BME280;36745;48.544;8.918;2024-01-27T02:47:25;99159.97;;;-0.35;100.00
50774;BME280;36745;48.544;8.918;2024-01-27T02:50:45;99151.09;;;-0.45;100.00
50774;BME280;36745;48.544;8.918;2024-01-27T02:54:05;99163.69;;;-0.49;100.00
50774;BME280;36745;48.544;8.918;2024-01-27T02:57:25;99155.84;;;-0.42;100.00
50774;BME280;36745;48.544;8.918;2024-01-27T03:00:44;99157.75;;;-0.33;100.00
50774;BME280;36745;48.544;8.918;2024-01-27T03:04:04;99161.09;;;-0.36;100.00
50774;BME280;36745;48.544;8.918;2024-01-27T03:07:24;99162.25;;;-0.46;100.00
50774;BME280;36745;48.544;8.918;2024-01-27T03:10:44;99167.50;;;-0.58;100.00
50774;BME280;36745;48.544;8.918;2024-01-27T03:14:03;99172.47;;;-0.60;100.00
50774;BME280;36745;48.544;8.918;2024-01-27T03:17:23;99163.38;;;-0.56;100.00
50774;BME280;36745;48.544;8.918;2024-01-27T03:20:43;99170.72;;;-0.56;100.00
50774;BME280;36745;48.544;8.918;2024-01-27T03:24:03;99175.63;;;-0.50;100.00
50774;BME280;36745;48.544;8.918;2024-01-27T03:27:23;99175.34;;;-0.57;100.00
50774;BME280;36745;48.544;8.918;2024-01-27T03:30:43;99178.69;;;-0.68;100.00
50774;BME280;36745;48.544;8.918;2024-01-27T03:34:03;99180.47;;;-0.81;100.00
50774;BME280;36745;48.544;8.918;2024-01-27T03:37:23;99194.31;;;-0.91;100.00
50774;BME280;36745;48.544;8.918;2024-01-27T03:40:42;99190.81;;;-0.92;100.00
50774;BME280;36745;48.544;8.918;2024-01-27T03:44:02;99190.66;;;-0.95;100.00
50774;BME280;36745;48.544;8.918;2024-01-27T03:47:22;99204.97;;;-0.86;100.00
50774;BME280;36745;48.544;8.918;2024-01-27T03:50:42;99203.41;;;-0.87;100.00
50774;BME280;36745;48.544;8.918;2024-01-27T03:54:02;99208.16;;;-0.84;100.00
50774;BME280;36745;48.544;8.918;2024-01-27T03:57:22;99211.34;;;-0.91;100.00
50774;BME280;36745;48.544;8.918;2024-01-27T04:00:41;99213.41;;;-0.96;100.00
50774;BME280;36745;48.544;8.918;2024-01-27T04:04:01;99220.44;;;-1.04;100.00
50774;BME280;36745;48.544;8.918;2024-01-27T04:07:21;99222.66;;;-1.06;100.00
50774;BME280;36745;48.544;8.918;2024-01-27T04:10:41;99214.88;;;-0.99;100.00
50774;BME280;36745;48.544;8.918;2024-01-27T04:14:00;99211.50;;;-1.13;100.00
50774;BME280;36745;48.544;8.918;2024-01-27T04:17:21;99222.66;;;-1.06;100.00
50774;BME280;36745;48.544;8.918;2024-01-27T04:20:42;99231.09;;;-1.07;100.00
50774;BME280;36745;48.544;8.918;2024-01-27T04:24:02;99229.50;;;-1.25;100.00
50774;BME280;36745;48.544;8.918;2024-01-27T04:27:21;99231.72;;;-1.19;100.00
50774;BME280;36745;48.544;8.918;2024-01-27T04:30:41;99233.94;;;-1.12;100.00
50774;BME280;36745;48.544;8.918;2024-01-27T04:34:01;99233.00;;;-1.16;100.00
50774;BME280;36745;48.544;8.918;2024-01-27T04:37:21;99237.78;;;-1.13;100.00
50774;BME280;36745;48.544;8.918;2024-01-27T04:40:41;99239.84;;;-1.10;100.00
50774;BME280;36745;48.544;8.918;2024-01-27T04:44:01;99231.84;;;-1.33;100.00
50774;BME280;36745;48.544;8.918;2024-01-27T04:47:21;99234.22;;;-1.40;100.00
50774;BME280;36745;48.544;8.918;2024-01-27T04:50:40;99233.63;;;-1.19;100.00
50774;BME280;36745;48.544;8.918;2024-01-27T04:54:00;99237.44;;;-1.20;100.00
50774;BME280;36745;48.544;8.918;2024-01-27T04:57:20;99235.19;;;-1.36;100.00
50774;BME280;36745;48.544;8.918;2024-01-27T05:00:40;99233.59;;;-1.37;100.00
50774;BME280;36745;48.544;8.918;2024-01-27T05:04:00;99229.75;;;-1.53;100.00
50774;BME280;36745;48.544;8.918;2024-01-27T05:07:20;99235.63;;;-1.51;100.00
50774;BME280;36745;48.544;8.918;2024-01-27T05:10:40;99235.50;;;-1.46;100.00
50774;BME280;36745;48.544;8.918;2024-01-27T05:14:00;99229.09;;;-1.50;100.00
50774;BME280;36745;48.544;8.918;2024-01-27T05:17:19;99221.47;;;-1.48;100.00
50774;BME280;36745;48.544;8.918;2024-01-27T05:20:39;99219.88;;;-1.49;100.00
50774;BME280;36745;48.544;8.918;2024-01-27T05:23:59;99225.28;;;-1.49;100.00
50774;BME280;36745;48.544;8.918;2024-01-27T05:27:19;99232.59;;;-1.58;100.00
50774;BME280;36745;48.544;8.918;2024-01-27T05:30:39;99234.19;;;-1.57;100.00
50774;BME280;36745;48.544;8.918;2024-01-27T05:33:59;99232.75;;;-1.54;100.00
50774;BME280;36745;48.544;8.918;2024-01-27T05:37:19;99228.59;;;-1.69;100.00
50774;BME280;36745;48.544;8.918;2024-01-27T05:40:38;99233.78;;;-1.81;100.00
50774;BME280;36745;48.544;8.918;2024-01-27T05:43:58;99227.41;;;-1.85;100.00
50774;BME280;36745;48.544;8.918;2024-01-27T05:47:18;99227.56;;;-1.90;100.00
50774;BME280;36745;48.544;8.918;2024-01-27T05:50:42;99230.84;;;-1.93;100.00
50774;BME280;36745;48.544;8.918;2024-01-27T05:54:01;99234.50;;;-1.98;100.00
50774;BME280;36745;48.544;8.918;2024-01-27T05:57:21;99236.91;;;-1.96;100.00
50774;BME280;36745;48.544;8.918;2024-01-27T06:00:44;99238.03;;;-1.89;100.00
50774;BME280;36745;48.544;8.918;2024-01-27T06:04:04;99236.91;;;-1.96;100.00
50774;BME280;36745;48.544;8.918;2024-01-27T06:07:24;99247.19;;;-2.07;100.00
50774;BME280;36745;48.544;8.918;2024-01-27T06:10:44;99246.00;;;-2.15;100.00
50774;BME280;36745;48.544;8.918;2024-01-27T06:14:04;99248.78;;;-2.06;100.00
50774;BME280;36745;48.544;8.918;2024-01-27T06:17:24;99239.00;;;-2.16;100.00
50774;BME280;36745;48.544;8.918;2024-01-27T06:20:44;99233.50;;;-2.10;100.00
50774;BME280;36745;48.544;8.918;2024-01-27T06:24:04;99232.03;;;-2.17;100.00
50774;BME280;36745;48.544;8.918;2024-01-27T06:27:24;99236.28;;;-2.24;100.00
50774;BME280;36745;48.544;8.918;2024-01-27T06:30:43;99239.50;;;-2.14;100.00
50774;BME280;36745;48.544;8.918;2024-01-27T06:34:03;99235.66;;;-2.21;100.00
50774;BME280;36745;48.544;8.918;2024-01-27T06:37:23;99244.25;;;-2.19;100.00
50774;BME280;36745;48.544;8.918;2024-01-27T06:40:43;99258.41;;;-2.14;100.00
50774;BME280;36745;48.544;8.918;2024-01-27T06:44:02;99250.28;;;-2.22;100.00
50774;BME280;36745;48.544;8.918;2024-01-27T06:47:22;99247.03;;;-2.33;100.00
50774;BME280;36745;48.544;8.918;2024-01-27T06:50:42;99245.84;;;-2.18;100.00
50774;BME280;36745;48.544;8.918;2024-01-27T06:54:02;99246.72;;;-2.31;100.00
50774;BME280;36745;48.544;8.918;2024-01-27T06:57:23;99253.97;;;-2.40;100.00
50774;BME280;36745;48.544;8.918;2024-01-27T07:00:43;99248.88;;;-2.42;100.00
50774;BME280;36745;48.544;8.918;2024-01-27T07:04:04;99268.41;;;-2.45;100.00
50774;BME280;36745;48.544;8.918;2024-01-27T07:07:26;99260.09;;;-2.26;100.00
50774;BME280;36745;48.544;8.918;2024-01-27T07:10:45;99266.97;;;-2.20;100.00
50774;BME280;36745;48.544;8.918;2024-01-27T07:14:05;99277.19;;;-2.08;100.00
50774;BME280;36745;48.544;8.918;2024-01-27T07:17:29;99272.59;;;-2.08;100.00
50774;BME280;36745;48.544;8.918;2024-01-27T07:20:48;99263.94;;;-1.96;100.00
50774;BME280;36745;48.544;8.918;2024-01-27T07:24:08;99273.66;;;-1.87;100.00
50774;BME280;36745;48.544;8.918;2024-01-27T07:27:29;99281.81;;;-1.78;100.00
50774;BME280;36745;48.544;8.918;2024-01-27T07:30:49;99284.56;;;-1.70;100.00
50774;BME280;36745;48.544;8.918;2024-01-27T07:34:09;99275.41;;;-1.51;100.00
50774;BME280;36745;48.544;8.918;2024-01-27T07:37:29;99275.28;;;-1.38;100.00
50774;BME280;36745;48.544;8.918;2024-01-27T07:40:49;99270.53;;;-1.32;100.00
50774;BME280;36745;48.544;8.918;2024-01-27T07:44:09;99276.44;;;-1.21;100.00
50774;BME280;36745;48.544;8.918;2024-01-27T07:47:30;99278.50;;;-1.18;100.00
50774;BME280;36745;48.544;8.918;2024-01-27T07:50:49;99284.56;;;-1.21;100.00
50774;BME280;36745;48.544;8.918;2024-01-27T07:54:10;99284.91;;;-1.14;100.00
50774;BME280;36745;48.544;8.918;2024-01-27T07:57:30;99289.06;;;-1.08;100.00
50774;BME280;36745;48.544;8.918;2024-01-27T08:00:49;99300.03;;;-1.05;100.00
50774;BME280;36745;48.544;8.918;2024-01-27T08:04:09;99293.66;;;-1.09;100.00
50774;BME280;36745;48.544;8.918;2024-01-27T08:07:29;99305.09;;;-1.12;100.00
50774;BME280;36745;48.544;8.918;2024-01-27T08:10:49;99305.75;;;-1.06;100.00
50774;BME280;36745;48.544;8.918;2024-01-27T08:14:09;99300.19;;;-1.01;100.00
50774;BME280;36745;48.544;8.918;2024-01-27T08:17:29;99285.84;;;-1.10;100.00
50774;BME280;36745;48.544;8.918;2024-01-27T08:20:49;99282.66;;;-1.30;100.00
50774;BME280;36745;48.544;8.918;2024-01-27T08:24:09;99290.31;;;-1.14;100.00
50774;BME280;36745;48.544;8.918;2024-01-27T08:27:29;99287.91;;;-1.07;100.00
50774;BME280;36745;48.544;8.918;2024-01-27T08:30:49;99279.81;;;-1.07;100.00
50774;BME280;36745;48.544;8.918;2024-01-27T08:34:08;99274.44;;;-0.73;100.00
50774;BME280;36745;48.544;8.918;2024-01-27T08:37:28;99277.78;;;-0.33;100.00
50774;BME280;36745;48.544;8.918;2024-01-27T08:40:49;99278.69;;;-0.20;100.00
50774;BME280;36745;48.544;8.918;2024-01-27T08:44:09;99276.78;;;-0.20;100.00
50774;BME280;36745;48.544;8.918;2024-01-27T08:47:28;99270.22;;;-0.10;100.00
50774;BME280;36745;48.544;8.918;2024-01-27T08:50:48;99276.16;;;-0.17;100.00
50774;BME280;36745;48.544;8.918;2024-01-27T08:54:08;99271.56;;;-0.33;100.00
50774;BME280;36745;48.544;8.918;2024-01-27T08:57:28;99271.03;;;-0.18;100.00
50774;BME280;36745;48.544;8.918;2024-01-27T09:00:50;99274.53;;;-0.09;100.00
50774;BME280;36745;48.544;8.918;2024-01-27T09:04:10;99280.78;;;-0.17;100.00
50774;BME280;36745;48.544;8.918;2024-01-27T09:07:30;99278.66;;;-0.03;100.00
50774;BME280;36745;48.544;8.918;2024-01-27T09:10:50;99290.00;;;-0.01;100.00
50774;BME280;36745;48.544;8.918;2024-01-27T09:14:10;99303.19;;;0.09;100.00
50774;BME280;36745;48.544;8.918;2024-01-27T09:17:29;99299.59;;;-0.12;100.00
50774;BME280;36745;48.544;8.918;2024-01-27T09:20:49;99301.00;;;-0.15;100.00
50774;BME280;36745;48.544;8.918;2024-01-27T09:24:09;99292.34;;;0.00;100.00
50774;BME280;36745;48.544;8.918;2024-01-27T09:27:29;99290.59;;;0.13;100.00
50774;BME280;36745;48.544;8.918;2024-01-27T09:30:49;99298.63;;;-0.16;100.00
50774;BME280;36745;48.544;8.918;2024-01-27T09:34:09;99294.91;;;0.14;100.00
50774;BME280;36745;48.544;8.918;2024-01-27T09:37:29;99292.34;;;0.56;100.00
50774;BME280;36745;48.544;8.918;2024-01-27T09:40:48;99301.53;;;0.72;100.00
50774;BME280;36745;48.544;8.918;2024-01-27T09:44:12;99307.06;;;0.84;100.00
50774;BME280;36745;48.544;8.918;2024-01-27T09:47:31;99318.94;;;1.00;100.00
50774;BME280;36745;48.544;8.918;2024-01-27T09:50:54;99312.97;;;0.86;100.00
50774;BME280;36745;48.544;8.918;2024-01-27T09:54:15;99312.22;;;1.06;100.00
50774;BME280;36745;48.544;8.918;2024-01-27T09:57:39;99322.69;;;1.16;100.00
50774;BME280;36745;48.544;8.918;2024-01-27T10:01:00;99315.53;;;1.33;100.00
50774;BME280;36745;48.544;8.918;2024-01-27T10:04:21;99305.59;;;1.16;100.00
50774;BME280;36745;48.544;8.918;2024-01-27T10:07:41;99301.75;;;1.17;100.00
50774;BME280;36745;48.544;8.918;2024-01-27T10:11:07;99314.22;;;1.39;100.00
50774;BME280;36745;48.544;8.918;2024-01-27T10:14:45;99305.78;;;1.32;100.00
50774;BME280;36745;48.544;8.918;2024-01-27T10:18:08;99306.88;;;1.18;100.00
50774;BME280;36745;48.544;8.918;2024-01-27T10:21:27;99302.28;;;1.10;100.00
50774;BME280;36745;48.544;8.918;2024-01-27T10:24:47;99307.22;;;1.08;100.00
50774;BME280;36745;48.544;8.918;2024-01-27T10:28:07;99297.63;;;1.11;100.00
50774;BME280;36745;48.544;8.918;2024-01-27T10:31:33;99286.91;;;1.14;100.00
50774;BME280;36745;48.544;8.918;2024-01-27T10:35:06;99282.13;;;1.11;100.00
50774;BME280;36745;48.544;8.918;2024-01-27T10:38:38;99274.81;;;1.03;100.00
50774;BME280;36745;48.544;8.918;2024-01-27T10:42:02;99267.25;;;1.17;100.00
50774;BME280;36745;48.544;8.918;2024-01-27T10:45:23;99260.59;;;1.48;100.00
50774;BME280;36745;48.544;8.918;2024-01-27T10:48:46;99258.78;;;1.52;100.00
50774;BME280;36745;48.544;8.918;2024-01-27T10:52:11;99272.78;;;0.71;100.00
50774;BME280;36745;48.544;8.918;2024-01-27T10:55:34;99258.88;;;0.81;100.00
50774;BME280;36745;48.544;8.918;2024-01-27T10:58:58;99268.56;;;1.11;100.00
50774;BME280;36745;48.544;8.918;2024-01-27T11:02:18;99277.09;;;1.43;100.00
50774;BME280;36745;48.544;8.918;2024-01-27T11:05:39;99253.81;;;1.54;100.00
50774;BME280;36745;48.544;8.918;2024-01-27T11:08:59;99243.66;;;1.63;100.00
50774;BME280;36745;48.544;8.918;2024-01-27T11:12:21;99259.56;;;1.73;100.00
50774;BME280;36745;48.544;8.918;2024-01-27T11:15:55;99261.19;;;1.86;100.00
50774;BME280;36745;48.544;8.918;2024-01-27T11:19:16;99253.34;;;1.73;100.00
50774;BME280;36745;48.544;8.918;2024-01-27T11:22:37;99255.38;;;1.22;100.00
50774;BME280;36745;48.544;8.918;2024-01-27T11:26:04;99239.19;;;1.46;100.00
50774;BME280;36745;48.544;8.918;2024-01-27T11:29:24;99237.88;;;1.97;100.00
50774;BME280;36745;48.544;8.918;2024-01-27T11:32:48;99227.16;;;2.25;100.00
50774;BME280;36745;48.544;8.918;2024-01-27T11:36:08;99220.47;;;2.35;100.00
50774;BME280;36745;48.544;8.918;2024-01-27T11:39:34;99230.91;;;2.45;100.00
50774;BME280;36745;48.544;8.918;2024-01-27T11:42:59;99240.88;;;2.65;100.00
50774;BME280;36745;48.544;8.918;2024-01-27T11:46:18;99259.50;;;2.75;100.00
50774;BME280;36745;48.544;8.918;2024-01-27T11:49:39;99262.66;;;2.65;100.00
50774;BME280;36745;48.544;8.918;2024-01-27T11:52:59;99258.34;;;2.40;100.00
50774;BME280;36745;48.544;8.918;2024-01-27T11:56:19;99248.38;;;2.32;100.00
50774;BME280;36745;48.544;8.918;2024-01-27T11:59:40;99243.84;;;2.36;100.00
50774;BME280;36745;48.544;8.918;2024-01-27T12:03:00;99220.50;;;2.59;100.00
50774;BME280;36745;48.544;8.918;2024-01-27T12:06:20;99215.72;;;2.80;100.00
50774;BME280;36745;48.544;8.918;2024-01-27T12:09:39;99217.72;;;2.95;100.00
50774;BME280;36745;48.544;8.918;2024-01-27T12:13:00;99214.38;;;3.14;100.00
50774;BME280;36745;48.544;8.918;2024-01-27T12:16:22;99205.38;;;3.26;100.00
50774;BME280;36745;48.544;8.918;2024-01-27T12:19:48;99198.97;;;3.06;100.00
50774;BME280;36745;48.544;8.918;2024-01-27T12:23:08;99194.16;;;3.15;100.00
50774;BME280;36745;48.544;8.918;2024-01-27T12:26:29;99188.91;;;2.82;100.00
50774;BME280;36745;48.544;8.918;2024-01-27T12:29:50;99186.63;;;2.84;100.00
50774;BME280;36745;48.544;8.918;2024-01-27T12:33:12;99195.34;;;3.02;100.00
50774;BME280;36745;48.544;8.918;2024-01-27T12:36:32;99190.31;;;3.44;100.00
50774;BME280;36745;48.544;8.918;2024-01-27T12:39:52;99177.69;;;3.67;100.00
50774;BME280;36745;48.544;8.918;2024-01-27T12:43:11;99175.28;;;3.94;100.00
50774;BME280;36745;48.544;8.918;2024-01-27T12:46:31;99163.47;;;4.72;100.00
50774;BME280;36745;48.544;8.918;2024-01-27T12:49:51;99145.88;;;5.46;100.00
50774;BME280;36745;48.544;8.918;2024-01-27T12:53:11;99156.63;;;6.19;100.00
50774;BME280;36745;48.544;8.918;2024-01-27T12:56:31;99151.34;;;6.33;98.40
50774;BME280;36745;48.544;8.918;2024-01-27T12:59:50;99145.03;;;6.82;97.71
50774;BME280;36745;48.544;8.918;2024-01-27T13:03:11;99136.59;;;7.28;96.52
50774;BME280;36745;48.544;8.918;2024-01-27T13:06:30;99136.16;;;7.59;94.06
50774;BME280;36745;48.544;8.918;2024-01-27T13:09:50;99141.88;;;7.80;93.73
50774;BME280;36745;48.544;8.918;2024-01-27T13:13:10;99144.06;;;8.05;92.70
50774;BME280;36745;48.544;8.918;2024-01-27T13:16:30;99130.63;;;7.92;90.83
50774;BME280;36745;48.544;8.918;2024-01-27T13:19:50;99121.50;;;8.29;90.83
50774;BME280;36745;48.544;8.918;2024-01-27T13:23:10;99126.09;;;8.65;90.85
50774;BME280;36745;48.544;8.918;2024-01-27T13:26:30;99118.06;;;9.04;91.72
50774;BME280;36745;48.544;8.918;2024-01-27T13:29:51;99118.50;;;9.17;89.80
50774;BME280;36745;48.544;8.918;2024-01-27T13:33:11;99118.97;;;9.33;88.27
50774;BME280;36745;48.544;8.918;2024-01-27T13:36:31;99116.22;;;9.37;86.75
50774;BME280;36745;48.544;8.918;2024-01-27T13:39:50;99104.09;;;9.55;85.94
50774;BME280;36745;48.544;8.918;2024-01-27T13:43:10;99109.59;;;9.59;85.03
50774;BME280;36745;48.544;8.918;2024-01-27T13:46:30;99097.34;;;9.46;84.59
50774;BME280;36745;48.544;8.918;2024-01-27T13:49:50;99102.03;;;9.31;84.77
50774;BME280;36745;48.544;8.918;2024-01-27T13:53:10;99112.44;;;8.83;80.62
50774;BME280;36745;48.544;8.918;2024-01-27T13:56:29;99110.69;;;8.54;83.24
50774;BME280;36745;48.544;8.918;2024-01-27T13:59:52;99108.81;;;8.14;81.67
50774;BME280;36745;48.544;8.918;2024-01-27T14:03:11;99104.06;;;7.63;83.02
50774;BME280;36745;48.544;8.918;2024-01-27T14:06:31;99097.03;;;7.29;84.03
50774;BME280;36745;48.544;8.918;2024-01-27T14:09:51;99103.50;;;6.54;83.75
50774;BME280;36745;48.544;8.918;2024-01-27T14:13:11;99101.72;;;6.12;85.24
50774;BME280;36745;48.544;8.918;2024-01-27T14:16:31;99091.88;;;5.85;86.06
50774;BME280;36745;48.544;8.918;2024-01-27T14:19:51;99082.16;;;5.65;87.27
50774;BME280;36745;48.544;8.918;2024-01-27T14:23:11;99088.81;;;5.44;88.34
50774;BME280;36745;48.544;8.918;2024-01-27T14:26:31;99091.13;;;5.42;89.00
50774;BME280;36745;48.544;8.918;2024-01-27T14:29:52;99085.00;;;5.30;89.99
50774;BME280;36745;48.544;8.918;2024-01-27T14:33:12;99085.25;;;5.21;91.42
50774;BME280;36745;48.544;8.918;2024-01-27T14:36:32;99093.75;;;5.16;92.74
50774;BME280;36745;48.544;8.918;2024-01-27T14:39:52;99091.72;;;5.13;93.23
50774;BME280;36745;48.544;8.918;2024-01-27T14:43:12;99092.75;;;5.05;93.07
50774;BME280;36745;48.544;8.918;2024-01-27T14:46:32;99100.44;;;4.99;93.00
50774;BME280;36745;48.544;8.918;2024-01-27T14:49:52;99103.81;;;4.93;92.62
50774;BME280;36745;48.544;8.918;2024-01-27T14:53:12;99103.25;;;4.84;93.27
50774;BME280;36745;48.544;8.918;2024-01-27T14:56:34;99094.59;;;4.82;94.16
50774;BME280;36745;48.544;8.918;2024-01-27T14:59:54;99076.13;;;4.75;94.32
50774;BME280;36745;48.544;8.918;2024-01-27T15:03:13;99084.09;;;4.64;95.74
50774;BME280;36745;48.544;8.918;2024-01-27T15:06:33;99077.06;;;4.63;94.60
50774;BME280;36745;48.544;8.918;2024-01-27T15:09:53;99084.81;;;4.61;94.99
50774;BME280;36745;48.544;8.918;2024-01-27T15:13:13;99078.34;;;4.50;95.92
50774;BME280;36745;48.544;8.918;2024-01-27T15:16:33;99075.16;;;4.48;96.41
50774;BME280;36745;48.544;8.918;2024-01-27T15:19:54;99067.41;;;4.50;96.38
50774;BME280;36745;48.544;8.918;2024-01-27T15:23:14;99069.69;;;4.48;96.50
50774;BME280;36745;48.544;8.918;2024-01-27T15:26:33;99057.91;;;4.44;97.20
50774;BME280;36745;48.544;8.918;2024-01-27T15:29:53;99054.25;;;4.37;97.56
50774;BME280;36745;48.544;8.918;2024-01-27T15:33:13;99051.44;;;4.33;99.11
50774;BME280;36745;48.544;8.918;2024-01-27T15:36:32;99055.47;;;4.39;99.27
50774;BME280;36745;48.544;8.918;2024-01-27T15:39:52;99061.66;;;4.36;98.81
50774;BME280;36745;48.544;8.918;2024-01-27T15:43:12;99065.06;;;4.14;99.28
50774;BME280;36745;48.544;8.918;2024-01-27T15:46:33;99054.69;;;4.04;98.63
50774;BME280;36745;48.544;8.918;2024-01-27T15:49:52;99053.47;;;3.86;100.00
50774;BME280;36745;48.544;8.918;2024-01-27T15:53:16;99055.59;;;3.76;100.00
50774;BME280;36745;48.544;8.918;2024-01-27T15:56:36;99057.34;;;3.69;100.00
50774;BME280;36745;48.544;8.918;2024-01-27T15:59:56;99057.00;;;3.70;99.71
50774;BME280;36745;48.544;8.918;2024-01-27T16:03:15;99066.66;;;3.52;100.00
50774;BME280;36745;48.544;8.918;2024-01-27T16:06:35;99063.22;;;3.24;99.95
50774;BME280;36745;48.544;8.918;2024-01-27T16:09:55;99067.38;;;3.06;100.00
50774;BME280;36745;48.544;8.918;2024-01-27T16:13:20;99069.03;;;2.94;100.00
50774;BME280;36745;48.544;8.918;2024-01-27T16:16:40;99059.31;;;2.81;100.00
50774;BME280;36745;48.544;8.918;2024-01-27T16:20:00;99074.09;;;2.80;100.00
50774;BME280;36745;48.544;8.918;2024-01-27T16:23:19;99082.16;;;2.65;100.00
50774;BME280;36745;48.544;8.918;2024-01-27T16:26:39;99078.47;;;2.57;100.00
50774;BME280;36745;48.544;8.918;2024-01-27T16:29:59;99095.38;;;2.38;100.00
50774;BME280;36745;48.544;8.918;2024-01-27T16:33:19;99092.34;;;2.40;100.00
50774;BME280;36745;48.544;8.918;2024-01-27T16:36:39;99094.16;;;2.24;100.00
50774;BME280;36745;48.544;8.918;2024-01-27T16:39:59;99088.31;;;2.09;100.00
50774;BME280;36745;48.544;8.918;2024-01-27T16:43:19;99091.44;;;2.11;100.00
50774;BME280;36745;48.544;8.918;2024-01-27T16:46:39;99101.19;;;2.00;100.00
50774;BME280;36745;48.544;8.918;2024-01-27T16:49:59;99107.78;;;1.87;100.00
50774;BME280;36745;48.544;8.918;2024-01-27T16:53:19;99103.25;;;1.79;100.00
50774;BME280;36745;48.544;8.918;2024-01-27T16:56:39;99100.06;;;1.65;100.00
50774;BME280;36745;48.544;8.918;2024-01-27T16:59:59;99110.94;;;1.65;100.00
50774;BME280;36745;48.544;8.918;2024-01-27T17:03:19;99101.16;;;1.52;100.00
50774;BME280;36745;48.544;8.918;2024-01-27T17:06:39;99112.03;;;1.52;100.00
50774;BME280;36745;48.544;8.918;2024-01-27T17:10:00;99106.75;;;1.55;100.00
50774;BME280;36745;48.544;8.918;2024-01-27T17:13:20;99109.09;;;1.57;100.00
50774;BME280;36745;48.544;8.918;2024-01-27T17:16:40;99112.72;;;1.49;100.00
50774;BME280;36745;48.544;8.918;2024-01-27T17:20:00;99115.91;;;1.51;100.00
50774;BME280;36745;48.544;8.918;2024-01-27T17:23:20;99116.56;;;1.48;100.00
50774;BME280;36745;48.544;8.918;2024-01-27T17:26:40;99115.41;;;1.37;100.00
50774;BME280;36745;48.544;8.918;2024-01-27T17:30:00;99121.56;;;1.13;100.00
50774;BME280;36745;48.544;8.918;2024-01-27T17:33:23;99114.66;;;1.15;100.00
50774;BME280;36745;48.544;8.918;2024-01-27T17:36:43;99125.47;;;1.03;100.00